Aeroporto :
LOGIN :

Iscrizione | Disclaimer

   EN    FR    IT 

 










Sommario :    VFR   VFR Marginale   IFR   IFR Intensivo   IFR Molto Intensivo
Visibilità : 
Base nubi : 
>= 8 km
>= 3000ft
5 / 8 km
1000 / 3000 ft
1500m / 5 km
500 / 1000 ft
800 / 1500m
200 / 500 ft
< 800m
< 200 ft
Simboli :   Temporali  Nebbia  Neve Forte  Precipitazioni Forti  Vento > 20 kt
SIGMETs :   Varie  Temporali  Ghiacco  Turbolenza  Onda orograficha  Ceneri Vulcaniche






- Altitudine del aeroporto : 209 ft
- Codice IATA : CLY


LFKC - Calvi

ULTIMO METAR :
  • 121330Z AUTO 01010KT 9999 BKN021 BKN028 BKN039 14/11 Q0996 NOSIG

METARs OBSOLETI :
  • 121300Z AUTO 01010KT 9999 BKN020 BKN026 BKN031 14/11 Q0996 NOSIG
  • 121230Z AUTO 01011KT 9999 BKN020 BKN026 OVC035 14/11 Q0997 NOSIG
  • 121200Z AUTO 01012KT 9999 BKN019 BKN027 OVC047 14/12 Q0997 NOSIG
  • 121130Z AUTO 01011KT 9999 BKN019 OVC026 14/12 Q0997 NOSIG
  • 121100Z AUTO 01012KT 9999 BKN019 BKN031 BKN100 14/12 Q0997 NOSIG

TAF TAF LFKC
Valido dal 12 a 09 ore il 13 a 09 ore UTC


120800Z 1209/1309 02012G22KT 9999 BKN020 TX16/1212Z TN09/1305Z
TEMPO 1209/1210 VRB03KT 3000 SHRA
BECMG 1216/1219 19008KT
TEMPO 1302/1309 21015G25KT
ATIS : +33 4 95 65 82 49



MetMap, La meteo Aeronautica in un colpo d'occhio ! - Copyright ORBIFLY Dicembre 2007 - Disclaimer

ORBIFLY MET'MAP TEAM :

Programmazione e sviluppo : Alexandra Zaïnal
Concezione e sviluppo : Baudouin d'Aumeries
Co-Programmazione e sviluppo : Marc-Olivier Méhu
Supporto tecnico e logistico : Manuel Goepfert
Aiuto per la traduzione : Arnaldo La Scala

Contatto : metmap@orbifly.com




FONTI E CREDITI :

   NOAA